Plaza, Washington
Current Conditions -  °F | °C
As of 11:53 PM on Sunday 25 Jan 2015 (Local Time) from KGEG Reporting Station
Moderate Fog Moderate Fog  
Wind Chill: 31°   Ceiling: 100
Heat Index: 37°   Visibility: 0.12mi
Dew Point: 37°   Wind: 8mph
Humidity: 100%   Direction: 40°NE
Pressure: 30.14"   Gusts: NA
Location:  47.2196°N, 117.453°W
Report Text: KGEG 260753Z 04007KT 1/8SM R03/1000V1200FT FG VV001 03/03 A3014 RMK AO2 SLP217 T00280028 401280028
Loading
Personal Weather Stations






























Interactive Weather Map New forecast layout! Learn more

10-Day Weather Forecast

Advertisements
Track Severe Weather on mobile